sensor_id;sensor_type;location;lat;lon;timestamp;P1;durP1;ratioP1;P2;durP2;ratioP2
68438;SDS011;55421;51.600;5.718;2023-04-06T00:00:10;21.90;;;11.30;;
68438;SDS011;55421;51.600;5.718;2023-04-06T00:02:58;20.90;;;10.80;;
68438;SDS011;55421;51.600;5.718;2023-04-06T00:05:24;19.70;;;11.00;;
68438;SDS011;55421;51.600;5.718;2023-04-06T00:07:51;21.10;;;11.30;;
68438;SDS011;55421;51.600;5.718;2023-04-06T00:10:18;23.80;;;12.30;;
68438;SDS011;55421;51.600;5.718;2023-04-06T00:12:45;19.00;;;12.00;;
68438;SDS011;55421;51.600;5.718;2023-04-06T00:15:12;23.80;;;12.40;;
68438;SDS011;55421;51.600;5.718;2023-04-06T00:17:38;20.60;;;12.20;;
68438;SDS011;55421;51.600;5.718;2023-04-06T00:20:05;19.30;;;11.40;;
68438;SDS011;55421;51.600;5.718;2023-04-06T00:22:33;18.10;;;11.80;;
68438;SDS011;55421;51.600;5.718;2023-04-06T00:25:00;20.40;;;11.60;;
68438;SDS011;55421;51.600;5.718;2023-04-06T00:27:26;20.30;;;10.90;;
68438;SDS011;55421;51.600;5.718;2023-04-06T00:29:53;18.20;;;10.90;;
68438;SDS011;55421;51.600;5.718;2023-04-06T00:32:19;22.30;;;11.10;;
68438;SDS011;55421;51.600;5.718;2023-04-06T00:34:46;18.90;;;10.40;;
68438;SDS011;55421;51.600;5.718;2023-04-06T00:37:12;21.20;;;10.50;;
68438;SDS011;55421;51.600;5.718;2023-04-06T00:39:39;16.60;;;9.80;;
68438;SDS011;55421;51.600;5.718;2023-04-06T00:42:11;17.20;;;9.60;;
68438;SDS011;55421;51.600;5.718;2023-04-06T00:44:43;20.80;;;10.70;;
68438;SDS011;55421;51.600;5.718;2023-04-06T00:47:09;18.30;;;10.00;;
68438;SDS011;55421;51.600;5.718;2023-04-06T00:49:36;23.20;;;11.20;;
68438;SDS011;55421;51.600;5.718;2023-04-06T00:52:03;19.60;;;9.60;;
68438;SDS011;55421;51.600;5.718;2023-04-06T00:54:29;16.80;;;9.80;;
68438;SDS011;55421;51.600;5.718;2023-04-06T00:56:57;15.40;;;9.50;;
68438;SDS011;55421;51.600;5.718;2023-04-06T00:59:24;21.30;;;10.90;;
68438;SDS011;55421;51.600;5.718;2023-04-06T01:01:51;17.10;;;10.20;;
68438;SDS011;55421;51.600;5.718;2023-04-06T01:04:17;17.40;;;10.30;;
68438;SDS011;55421;51.600;5.718;2023-04-06T01:06:44;20.50;;;9.60;;
68438;SDS011;55421;51.600;5.718;2023-04-06T01:09:11;16.40;;;8.80;;
68438;SDS011;55421;51.600;5.718;2023-04-06T01:11:38;14.80;;;8.80;;
68438;SDS011;55421;51.600;5.718;2023-04-06T01:14:04;15.50;;;9.10;;
68438;SDS011;55421;51.600;5.718;2023-04-06T01:16:32;15.00;;;9.20;;
68438;SDS011;55421;51.600;5.718;2023-04-06T01:18:59;15.70;;;8.50;;
68438;SDS011;55421;51.600;5.718;2023-04-06T01:21:26;18.40;;;10.50;;
68438;SDS011;55421;51.600;5.718;2023-04-06T01:23:53;17.90;;;10.60;;
68438;SDS011;55421;51.600;5.718;2023-04-06T01:26:19;15.90;;;9.30;;
68438;SDS011;55421;51.600;5.718;2023-04-06T01:28:46;17.00;;;9.60;;
68438;SDS011;55421;51.600;5.718;2023-04-06T01:31:12;17.40;;;9.40;;
68438;SDS011;55421;51.600;5.718;2023-04-06T01:33:39;24.30;;;10.30;;
68438;SDS011;55421;51.600;5.718;2023-04-06T01:36:06;18.40;;;10.90;;
68438;SDS011;55421;51.600;5.718;2023-04-06T01:38:33;20.80;;;12.30;;
68438;SDS011;55421;51.600;5.718;2023-04-06T01:40:59;20.00;;;11.40;;
68438;SDS011;55421;51.600;5.718;2023-04-06T01:43:26;17.40;;;10.60;;
68438;SDS011;55421;51.600;5.718;2023-04-06T01:45:53;20.50;;;11.10;;
68438;SDS011;55421;51.600;5.718;2023-04-06T01:48:19;17.40;;;11.10;;
68438;SDS011;55421;51.600;5.718;2023-04-06T01:50:46;22.30;;;11.50;;
68438;SDS011;55421;51.600;5.718;2023-04-06T01:53:12;19.50;;;11.50;;
68438;SDS011;55421;51.600;5.718;2023-04-06T01:55:41;23.20;;;11.70;;
68438;SDS011;55421;51.600;5.718;2023-04-06T01:58:08;19.70;;;11.00;;
68438;SDS011;55421;51.600;5.718;2023-04-06T02:00:34;18.80;;;10.20;;
68438;SDS011;55421;51.600;5.718;2023-04-06T02:03:01;18.50;;;10.20;;
68438;SDS011;55421;51.600;5.718;2023-04-06T02:05:30;19.40;;;10.20;;
68438;SDS011;55421;51.600;5.718;2023-04-06T02:07:59;16.90;;;10.60;;
68438;SDS011;55421;51.600;5.718;2023-04-06T02:10:25;19.60;;;9.60;;
68438;SDS011;55421;51.600;5.718;2023-04-06T02:12:52;18.00;;;10.50;;
68438;SDS011;55421;51.600;5.718;2023-04-06T02:15:18;21.30;;;11.70;;
68438;SDS011;55421;51.600;5.718;2023-04-06T02:17:45;18.50;;;11.00;;
68438;SDS011;55421;51.600;5.718;2023-04-06T02:20:12;20.60;;;11.60;;
68438;SDS011;55421;51.600;5.718;2023-04-06T02:22:39;20.60;;;11.50;;
68438;SDS011;55421;51.600;5.718;2023-04-06T02:25:06;19.40;;;11.50;;
68438;SDS011;55421;51.600;5.718;2023-04-06T02:27:33;22.80;;;11.50;;
68438;SDS011;55421;51.600;5.718;2023-04-06T02:29:59;20.40;;;12.40;;
68438;SDS011;55421;51.600;5.718;2023-04-06T02:32:26;21.30;;;11.70;;
68438;SDS011;55421;51.600;5.718;2023-04-06T02:34:52;21.50;;;11.30;;
68438;SDS011;55421;51.600;5.718;2023-04-06T02:37:19;19.50;;;10.80;;
68438;SDS011;55421;51.600;5.718;2023-04-06T02:39:46;21.70;;;11.40;;
68438;SDS011;55421;51.600;5.718;2023-04-06T02:42:13;22.20;;;12.20;;
68438;SDS011;55421;51.600;5.718;2023-04-06T02:44:42;22.90;;;12.00;;
68438;SDS011;55421;51.600;5.718;2023-04-06T02:47:09;20.90;;;11.60;;
68438;SDS011;55421;51.600;5.718;2023-04-06T02:49:36;22.90;;;12.50;;
68438;SDS011;55421;51.600;5.718;2023-04-06T02:52:03;23.90;;;13.00;;
68438;SDS011;55421;51.600;5.718;2023-04-06T02:54:29;21.00;;;11.60;;
68438;SDS011;55421;51.600;5.718;2023-04-06T02:56:56;26.40;;;13.10;;
68438;SDS011;55421;51.600;5.718;2023-04-06T02:59:22;24.20;;;12.50;;
68438;SDS011;55421;51.600;5.718;2023-04-06T03:01:49;25.10;;;13.60;;
68438;SDS011;55421;51.600;5.718;2023-04-06T03:04:15;23.70;;;12.20;;
68438;SDS011;55421;51.600;5.718;2023-04-06T03:06:42;25.40;;;12.80;;
68438;SDS011;55421;51.600;5.718;2023-04-06T03:09:08;22.50;;;12.30;;
68438;SDS011;55421;51.600;5.718;2023-04-06T03:11:34;28.20;;;13.00;;
68438;SDS011;55421;51.600;5.718;2023-04-06T03:14:01;22.50;;;12.10;;
68438;SDS011;55421;51.600;5.718;2023-04-06T03:16:27;24.90;;;12.80;;
68438;SDS011;55421;51.600;5.718;2023-04-06T03:18:54;20.70;;;11.80;;
68438;SDS011;55421;51.600;5.718;2023-04-06T03:21:21;21.80;;;11.60;;
68438;SDS011;55421;51.600;5.718;2023-04-06T03:23:47;23.30;;;12.10;;
68438;SDS011;55421;51.600;5.718;2023-04-06T03:26:17;23.20;;;11.20;;
68438;SDS011;55421;51.600;5.718;2023-04-06T03:28:44;22.10;;;12.40;;
68438;SDS011;55421;51.600;5.718;2023-04-06T03:31:10;22.40;;;12.00;;
68438;SDS011;55421;51.600;5.718;2023-04-06T03:33:37;22.80;;;12.80;;
68438;SDS011;55421;51.600;5.718;2023-04-06T03:36:04;26.20;;;13.20;;
68438;SDS011;55421;51.600;5.718;2023-04-06T03:38:31;20.50;;;11.60;;
68438;SDS011;55421;51.600;5.718;2023-04-06T03:40:57;24.10;;;13.50;;
68438;SDS011;55421;51.600;5.718;2023-04-06T03:43:23;24.60;;;13.50;;
68438;SDS011;55421;51.600;5.718;2023-04-06T03:45:50;24.10;;;13.30;;
68438;SDS011;55421;51.600;5.718;2023-04-06T03:48:16;25.80;;;13.50;;
68438;SDS011;55421;51.600;5.718;2023-04-06T03:50:43;22.80;;;12.70;;
68438;SDS011;55421;51.600;5.718;2023-04-06T03:53:10;26.00;;;12.80;;
68438;SDS011;55421;51.600;5.718;2023-04-06T03:55:36;26.10;;;13.00;;
68438;SDS011;55421;51.600;5.718;2023-04-06T03:58:03;26.20;;;13.20;;
68438;SDS011;55421;51.600;5.718;2023-04-06T04:00:29;25.80;;;14.40;;
68438;SDS011;55421;51.600;5.718;2023-04-06T04:02:56;24.40;;;13.60;;
68438;SDS011;55421;51.600;5.718;2023-04-06T04:05:22;20.10;;;11.50;;
68438;SDS011;55421;51.600;5.718;2023-04-06T04:07:51;23.70;;;13.60;;
68438;SDS011;55421;51.600;5.718;2023-04-06T04:10:18;22.10;;;12.40;;
68438;SDS011;55421;51.600;5.718;2023-04-06T04:12:45;26.10;;;14.60;;
68438;SDS011;55421;51.600;5.718;2023-04-06T04:15:11;26.50;;;13.10;;
68438;SDS011;55421;51.600;5.718;2023-04-06T04:17:38;26.60;;;14.70;;
68438;SDS011;55421;51.600;5.718;2023-04-06T04:20:05;27.80;;;13.20;;
68438;SDS011;55421;51.600;5.718;2023-04-06T04:22:33;27.90;;;14.40;;
68438;SDS011;55421;51.600;5.718;2023-04-06T04:24:59;26.50;;;14.60;;
68438;SDS011;55421;51.600;5.718;2023-04-06T04:27:25;28.40;;;14.60;;
68438;SDS011;55421;51.600;5.718;2023-04-06T04:29:52;23.60;;;14.00;;
68438;SDS011;55421;51.600;5.718;2023-04-06T04:32:18;25.50;;;15.10;;
68438;SDS011;55421;51.600;5.718;2023-04-06T04:34:45;27.10;;;15.30;;
68438;SDS011;55421;51.600;5.718;2023-04-06T04:37:12;29.50;;;16.30;;
68438;SDS011;55421;51.600;5.718;2023-04-06T04:39:38;30.90;;;16.90;;
68438;SDS011;55421;51.600;5.718;2023-04-06T04:42:05;31.60;;;16.10;;
68438;SDS011;55421;51.600;5.718;2023-04-06T04:44:32;26.50;;;15.90;;
68438;SDS011;55421;51.600;5.718;2023-04-06T04:46:58;28.30;;;17.00;;
68438;SDS011;55421;51.600;5.718;2023-04-06T04:49:24;31.50;;;16.00;;
68438;SDS011;55421;51.600;5.718;2023-04-06T04:51:51;29.30;;;16.60;;
68438;SDS011;55421;51.600;5.718;2023-04-06T04:54:18;29.70;;;16.10;;
68438;SDS011;55421;51.600;5.718;2023-04-06T04:56:45;34.20;;;16.90;;
68438;SDS011;55421;51.600;5.718;2023-04-06T04:59:11;31.30;;;15.90;;
68438;SDS011;55421;51.600;5.718;2023-04-06T05:01:38;32.50;;;16.80;;
68438;SDS011;55421;51.600;5.718;2023-04-06T05:04:05;30.10;;;16.10;;
68438;SDS011;55421;51.600;5.718;2023-04-06T05:06:31;28.90;;;16.50;;
68438;SDS011;55421;51.600;5.718;2023-04-06T05:08:58;26.80;;;14.30;;
68438;SDS011;55421;51.600;5.718;2023-04-06T05:11:24;30.90;;;15.80;;
68438;SDS011;55421;51.600;5.718;2023-04-06T05:13:52;26.20;;;15.10;;
68438;SDS011;55421;51.600;5.718;2023-04-06T05:16:19;33.10;;;16.30;;
68438;SDS011;55421;51.600;5.718;2023-04-06T05:18:47;33.20;;;16.60;;
68438;SDS011;55421;51.600;5.718;2023-04-06T05:21:14;26.50;;;15.50;;
68438;SDS011;55421;51.600;5.718;2023-04-06T05:23:41;29.10;;;16.00;;
68438;SDS011;55421;51.600;5.718;2023-04-06T05:26:07;25.90;;;15.40;;
68438;SDS011;55421;51.600;5.718;2023-04-06T05:28:34;30.00;;;15.40;;
68438;SDS011;55421;51.600;5.718;2023-04-06T05:31:00;27.40;;;16.00;;
68438;SDS011;55421;51.600;5.718;2023-04-06T05:33:27;32.30;;;14.80;;
68438;SDS011;55421;51.600;5.718;2023-04-06T05:35:53;28.30;;;14.60;;
68438;SDS011;55421;51.600;5.718;2023-04-06T05:38:20;26.90;;;15.20;;
68438;SDS011;55421;51.600;5.718;2023-04-06T05:40:47;27.40;;;15.40;;
68438;SDS011;55421;51.600;5.718;2023-04-06T05:43:13;27.00;;;16.00;;
68438;SDS011;55421;51.600;5.718;2023-04-06T05:45:40;34.00;;;16.60;;
68438;SDS011;55421;51.600;5.718;2023-04-06T05:48:08;32.30;;;17.10;;
68438;SDS011;55421;51.600;5.718;2023-04-06T05:50:35;30.50;;;17.10;;
68438;SDS011;55421;51.600;5.718;2023-04-06T05:53:01;29.80;;;17.20;;
68438;SDS011;55421;51.600;5.718;2023-04-06T05:55:28;27.80;;;16.40;;
68438;SDS011;55421;51.600;5.718;2023-04-06T05:57:56;31.00;;;17.00;;
68438;SDS011;55421;51.600;5.718;2023-04-06T06:00:22;29.00;;;17.10;;
68438;SDS011;55421;51.600;5.718;2023-04-06T06:02:49;33.70;;;17.70;;
68438;SDS011;55421;51.600;5.718;2023-04-06T06:05:16;22.80;;;13.00;;
68438;SDS011;55421;51.600;5.718;2023-04-06T06:07:42;28.10;;;15.90;;
68438;SDS011;55421;51.600;5.718;2023-04-06T06:10:09;23.10;;;12.30;;
68438;SDS011;55421;51.600;5.718;2023-04-06T06:12:36;27.50;;;15.70;;
68438;SDS011;55421;51.600;5.718;2023-04-06T06:15:03;30.70;;;16.40;;
68438;SDS011;55421;51.600;5.718;2023-04-06T06:17:31;29.20;;;16.30;;
68438;SDS011;55421;51.600;5.718;2023-04-06T06:19:58;27.90;;;15.70;;
68438;SDS011;55421;51.600;5.718;2023-04-06T06:22:24;28.90;;;15.50;;
68438;SDS011;55421;51.600;5.718;2023-04-06T06:24:51;29.80;;;16.60;;
68438;SDS011;55421;51.600;5.718;2023-04-06T06:27:17;31.50;;;17.50;;
68438;SDS011;55421;51.600;5.718;2023-04-06T06:29:44;30.50;;;16.50;;
68438;SDS011;55421;51.600;5.718;2023-04-06T06:32:10;27.10;;;16.10;;
68438;SDS011;55421;51.600;5.718;2023-04-06T06:34:37;27.50;;;15.50;;
68438;SDS011;55421;51.600;5.718;2023-04-06T06:37:03;26.20;;;15.30;;
68438;SDS011;55421;51.600;5.718;2023-04-06T06:39:30;24.60;;;14.40;;
68438;SDS011;55421;51.600;5.718;2023-04-06T06:41:56;23.20;;;14.10;;
68438;SDS011;55421;51.600;5.718;2023-04-06T06:44:23;24.60;;;14.00;;
68438;SDS011;55421;51.600;5.718;2023-04-06T06:46:49;28.80;;;15.10;;
68438;SDS011;55421;51.600;5.718;2023-04-06T06:49:16;23.00;;;12.80;;
68438;SDS011;55421;51.600;5.718;2023-04-06T06:51:42;25.10;;;13.70;;
68438;SDS011;55421;51.600;5.718;2023-04-06T06:54:09;21.50;;;13.00;;
68438;SDS011;55421;51.600;5.718;2023-04-06T06:56:35;28.20;;;14.40;;
68438;SDS011;55421;51.600;5.718;2023-04-06T06:59:05;24.90;;;13.10;;
68438;SDS011;55421;51.600;5.718;2023-04-06T07:01:35;26.00;;;14.60;;
68438;SDS011;55421;51.600;5.718;2023-04-06T07:04:02;24.20;;;13.90;;
68438;SDS011;55421;51.600;5.718;2023-04-06T07:06:29;24.30;;;13.70;;
68438;SDS011;55421;51.600;5.718;2023-04-06T07:08:57;21.60;;;12.50;;
68438;SDS011;55421;51.600;5.718;2023-04-06T07:11:23;23.00;;;13.60;;
68438;SDS011;55421;51.600;5.718;2023-04-06T07:13:50;26.20;;;14.30;;
68438;SDS011;55421;51.600;5.718;2023-04-06T07:16:17;29.30;;;13.80;;
68438;SDS011;55421;51.600;5.718;2023-04-06T07:18:43;26.20;;;14.70;;
68438;SDS011;55421;51.600;5.718;2023-04-06T07:21:10;27.60;;;14.00;;
68438;SDS011;55421;51.600;5.718;2023-04-06T07:23:37;25.20;;;14.80;;
68438;SDS011;55421;51.600;5.718;2023-04-06T07:26:04;20.70;;;13.30;;
68438;SDS011;55421;51.600;5.718;2023-04-06T07:28:31;23.90;;;14.20;;
68438;SDS011;55421;51.600;5.718;2023-04-06T07:30:57;23.30;;;14.10;;
68438;SDS011;55421;51.600;5.718;2023-04-06T07:33:24;27.30;;;15.20;;
68438;SDS011;55421;51.600;5.718;2023-04-06T07:35:51;26.10;;;13.10;;
68438;SDS011;55421;51.600;5.718;2023-04-06T07:38:18;21.00;;;12.00;;
68438;SDS011;55421;51.600;5.718;2023-04-06T07:40:45;24.30;;;13.50;;
68438;SDS011;55421;51.600;5.718;2023-04-06T07:43:12;23.50;;;12.90;;
68438;SDS011;55421;51.600;5.718;2023-04-06T07:45:38;24.70;;;13.40;;
68438;SDS011;55421;51.600;5.718;2023-04-06T07:48:05;21.70;;;12.60;;
68438;SDS011;55421;51.600;5.718;2023-04-06T07:50:31;22.80;;;13.00;;
68438;SDS011;55421;51.600;5.718;2023-04-06T07:52:57;24.40;;;13.10;;
68438;SDS011;55421;51.600;5.718;2023-04-06T07:55:24;18.10;;;10.20;;
68438;SDS011;55421;51.600;5.718;2023-04-06T07:57:51;26.60;;;14.40;;
68438;SDS011;55421;51.600;5.718;2023-04-06T08:00:18;21.90;;;11.40;;
68438;SDS011;55421;51.600;5.718;2023-04-06T08:02:46;32.00;;;14.20;;
68438;SDS011;55421;51.600;5.718;2023-04-06T08:05:12;25.80;;;12.70;;
68438;SDS011;55421;51.600;5.718;2023-04-06T08:07:39;23.10;;;12.50;;
68438;SDS011;55421;51.600;5.718;2023-04-06T08:10:08;21.00;;;12.90;;
68438;SDS011;55421;51.600;5.718;2023-04-06T08:12:35;23.40;;;14.60;;
68438;SDS011;55421;51.600;5.718;2023-04-06T08:15:01;25.50;;;14.20;;
68438;SDS011;55421;51.600;5.718;2023-04-06T08:17:31;25.60;;;14.40;;
68438;SDS011;55421;51.600;5.718;2023-04-06T08:20:00;24.30;;;14.10;;
68438;SDS011;55421;51.600;5.718;2023-04-06T08:22:26;21.30;;;11.20;;
68438;SDS011;55421;51.600;5.718;2023-04-06T08:24:53;27.30;;;13.40;;
68438;SDS011;55421;51.600;5.718;2023-04-06T08:27:20;19.80;;;12.10;;
68438;SDS011;55421;51.600;5.718;2023-04-06T08:29:49;27.90;;;13.60;;
68438;SDS011;55421;51.600;5.718;2023-04-06T08:32:15;26.90;;;14.90;;
68438;SDS011;55421;51.600;5.718;2023-04-06T08:34:42;23.30;;;13.30;;
68438;SDS011;55421;51.600;5.718;2023-04-06T08:37:08;24.50;;;14.50;;
68438;SDS011;55421;51.600;5.718;2023-04-06T08:39:35;23.10;;;13.90;;
68438;SDS011;55421;51.600;5.718;2023-04-06T08:42:02;21.40;;;13.70;;
68438;SDS011;55421;51.600;5.718;2023-04-06T08:44:29;26.50;;;14.50;;
68438;SDS011;55421;51.600;5.718;2023-04-06T08:46:59;20.50;;;12.60;;
68438;SDS011;55421;51.600;5.718;2023-04-06T08:49:26;24.20;;;13.20;;
68438;SDS011;55421;51.600;5.718;2023-04-06T08:51:53;23.50;;;13.80;;
68438;SDS011;55421;51.600;5.718;2023-04-06T08:54:21;27.50;;;15.40;;
68438;SDS011;55421;51.600;5.718;2023-04-06T08:56:48;27.30;;;14.10;;
68438;SDS011;55421;51.600;5.718;2023-04-06T08:59:15;23.90;;;13.90;;
68438;SDS011;55421;51.600;5.718;2023-04-06T09:01:42;25.30;;;14.60;;
68438;SDS011;55421;51.600;5.718;2023-04-06T09:04:12;25.40;;;13.70;;
68438;SDS011;55421;51.600;5.718;2023-04-06T09:06:39;24.70;;;14.00;;
68438;SDS011;55421;51.600;5.718;2023-04-06T09:09:07;26.10;;;14.40;;
68438;SDS011;55421;51.600;5.718;2023-04-06T09:11:47;25.70;;;14.40;;
68438;SDS011;55421;51.600;5.718;2023-04-06T09:14:16;24.60;;;14.10;;
68438;SDS011;55421;51.600;5.718;2023-04-06T09:16:44;22.60;;;13.80;;
68438;SDS011;55421;51.600;5.718;2023-04-06T09:19:12;23.20;;;13.70;;
68438;SDS011;55421;51.600;5.718;2023-04-06T09:21:39;26.40;;;14.40;;
68438;SDS011;55421;51.600;5.718;2023-04-06T09:24:07;26.00;;;14.30;;
68438;SDS011;55421;51.600;5.718;2023-04-06T09:26:45;23.20;;;13.40;;
68438;SDS011;55421;51.600;5.718;2023-04-06T09:29:23;24.70;;;13.40;;
68438;SDS011;55421;51.600;5.718;2023-04-06T09:32:02;23.80;;;12.80;;
68438;SDS011;55421;51.600;5.718;2023-04-06T09:34:29;23.00;;;13.30;;
68438;SDS011;55421;51.600;5.718;2023-04-06T09:36:56;21.30;;;12.80;;
68438;SDS011;55421;51.600;5.718;2023-04-06T09:39:22;23.30;;;13.30;;
68438;SDS011;55421;51.600;5.718;2023-04-06T09:41:53;22.20;;;11.60;;
68438;SDS011;55421;51.600;5.718;2023-04-06T09:44:20;19.90;;;11.50;;
68438;SDS011;55421;51.600;5.718;2023-04-06T09:46:47;18.50;;;11.80;;
68438;SDS011;55421;51.600;5.718;2023-04-06T09:49:14;19.30;;;12.20;;
68438;SDS011;55421;51.600;5.718;2023-04-06T09:51:48;21.80;;;13.50;;
68438;SDS011;55421;51.600;5.718;2023-04-06T09:54:21;24.90;;;13.10;;
68438;SDS011;55421;51.600;5.718;2023-04-06T09:57:07;19.00;;;12.10;;
68438;SDS011;55421;51.600;5.718;2023-04-06T09:59:50;20.90;;;12.10;;
68438;SDS011;55421;51.600;5.718;2023-04-06T10:02:30;22.00;;;11.80;;
68438;SDS011;55421;51.600;5.718;2023-04-06T10:05:28;23.20;;;12.40;;
68438;SDS011;55421;51.600;5.718;2023-04-06T10:08:03;24.80;;;13.80;;
68438;SDS011;55421;51.600;5.718;2023-04-06T10:10:33;22.80;;;13.20;;
68438;SDS011;55421;51.600;5.718;2023-04-06T10:13:00;19.50;;;10.30;;
68438;SDS011;55421;51.600;5.718;2023-04-06T10:15:30;21.00;;;12.80;;
68438;SDS011;55421;51.600;5.718;2023-04-06T10:17:58;21.70;;;12.60;;
68438;SDS011;55421;51.600;5.718;2023-04-06T10:20:29;18.00;;;11.30;;
68438;SDS011;55421;51.600;5.718;2023-04-06T10:26:15;26.50;;;12.30;;
68438;SDS011;55421;51.600;5.718;2023-04-06T10:28:47;21.90;;;12.40;;
68438;SDS011;55421;51.600;5.718;2023-04-06T10:31:15;18.60;;;10.70;;
68438;SDS011;55421;51.600;5.718;2023-04-06T10:33:55;19.70;;;11.00;;
68438;SDS011;55421;51.600;5.718;2023-04-06T10:36:25;15.80;;;8.80;;
68438;SDS011;55421;51.600;5.718;2023-04-06T10:39:01;15.90;;;8.60;;
68438;SDS011;55421;51.600;5.718;2023-04-06T10:41:55;19.10;;;9.40;;
68438;SDS011;55421;51.600;5.718;2023-04-06T10:44:42;13.90;;;8.10;;
68438;SDS011;55421;51.600;5.718;2023-04-06T10:47:16;12.70;;;8.10;;
68438;SDS011;55421;51.600;5.718;2023-04-06T10:49:44;13.60;;;8.50;;
68438;SDS011;55421;51.600;5.718;2023-04-06T10:52:10;14.90;;;8.90;;
68438;SDS011;55421;51.600;5.718;2023-04-06T10:54:42;12.20;;;7.90;;
68438;SDS011;55421;51.600;5.718;2023-04-06T10:57:12;14.40;;;8.50;;
68438;SDS011;55421;51.600;5.718;2023-04-06T10:59:42;14.20;;;8.90;;
68438;SDS011;55421;51.600;5.718;2023-04-06T11:04:57;13.60;;;8.10;;
68438;SDS011;55421;51.600;5.718;2023-04-06T11:07:27;12.50;;;7.80;;
68438;SDS011;55421;51.600;5.718;2023-04-06T11:09:56;12.10;;;7.90;;
68438;SDS011;55421;51.600;5.718;2023-04-06T11:12:26;9.30;;;5.90;;
68438;SDS011;55421;51.600;5.718;2023-04-06T11:14:58;11.60;;;7.20;;
68438;SDS011;55421;51.600;5.718;2023-04-06T11:17:36;8.40;;;5.60;;
68438;SDS011;55421;51.600;5.718;2023-04-06T11:20:05;7.40;;;4.80;;
68438;SDS011;55421;51.600;5.718;2023-04-06T11:22:36;10.80;;;5.50;;
68438;SDS011;55421;51.600;5.718;2023-04-06T11:25:14;9.70;;;5.50;;
68438;SDS011;55421;51.600;5.718;2023-04-06T11:27:43;9.40;;;5.40;;
68438;SDS011;55421;51.600;5.718;2023-04-06T11:30:10;8.30;;;5.70;;
68438;SDS011;55421;51.600;5.718;2023-04-06T11:32:41;8.20;;;5.50;;
68438;SDS011;55421;51.600;5.718;2023-04-06T11:35:19;6.40;;;4.80;;
68438;SDS011;55421;51.600;5.718;2023-04-06T11:37:49;10.40;;;6.20;;
68438;SDS011;55421;51.600;5.718;2023-04-06T11:40:21;9.20;;;5.80;;
68438;SDS011;55421;51.600;5.718;2023-04-06T11:42:52;10.60;;;5.60;;
68438;SDS011;55421;51.600;5.718;2023-04-06T11:45:20;8.00;;;5.50;;
68438;SDS011;55421;51.600;5.718;2023-04-06T11:47:56;11.60;;;4.30;;
68438;SDS011;55421;51.600;5.718;2023-04-06T11:50:25;7.50;;;4.40;;
68438;SDS011;55421;51.600;5.718;2023-04-06T11:53:00;6.60;;;4.60;;
68438;SDS011;55421;51.600;5.718;2023-04-06T11:55:29;8.20;;;4.90;;
68438;SDS011;55421;51.600;5.718;2023-04-06T11:57:55;5.60;;;3.90;;
68438;SDS011;55421;51.600;5.718;2023-04-06T12:00:22;5.50;;;4.20;;
68438;SDS011;55421;51.600;5.718;2023-04-06T12:02:49;7.70;;;4.90;;
68438;SDS011;55421;51.600;5.718;2023-04-06T12:05:15;7.50;;;4.10;;
68438;SDS011;55421;51.600;5.718;2023-04-06T12:07:42;7.20;;;4.30;;
68438;SDS011;55421;51.600;5.718;2023-04-06T12:10:09;6.80;;;4.50;;
68438;SDS011;55421;51.600;5.718;2023-04-06T12:12:35;6.30;;;4.00;;
68438;SDS011;55421;51.600;5.718;2023-04-06T12:15:02;7.70;;;4.60;;
68438;SDS011;55421;51.600;5.718;2023-04-06T12:17:29;6.40;;;4.10;;
68438;SDS011;55421;51.600;5.718;2023-04-06T12:19:55;5.70;;;3.90;;
68438;SDS011;55421;51.600;5.718;2023-04-06T12:22:22;6.50;;;4.50;;
68438;SDS011;55421;51.600;5.718;2023-04-06T12:24:48;7.80;;;5.00;;
68438;SDS011;55421;51.600;5.718;2023-04-06T12:27:15;6.50;;;4.50;;
68438;SDS011;55421;51.600;5.718;2023-04-06T12:29:42;6.30;;;4.80;;
68438;SDS011;55421;51.600;5.718;2023-04-06T12:32:08;6.40;;;4.60;;
68438;SDS011;55421;51.600;5.718;2023-04-06T12:34:35;6.40;;;4.10;;
68438;SDS011;55421;51.600;5.718;2023-04-06T12:37:01;8.10;;;5.10;;
68438;SDS011;55421;51.600;5.718;2023-04-06T12:39:28;5.80;;;4.70;;
68438;SDS011;55421;51.600;5.718;2023-04-06T12:41:54;6.60;;;4.50;;
68438;SDS011;55421;51.600;5.718;2023-04-06T12:44:22;7.60;;;4.90;;
68438;SDS011;55421;51.600;5.718;2023-04-06T12:46:49;6.30;;;4.90;;
68438;SDS011;55421;51.600;5.718;2023-04-06T12:49:16;7.60;;;5.10;;
68438;SDS011;55421;51.600;5.718;2023-04-06T12:51:45;8.90;;;5.40;;
68438;SDS011;55421;51.600;5.718;2023-04-06T12:54:11;6.90;;;4.50;;
68438;SDS011;55421;51.600;5.718;2023-04-06T12:56:38;8.60;;;6.30;;
68438;SDS011;55421;51.600;5.718;2023-04-06T12:59:04;8.20;;;4.90;;
68438;SDS011;55421;51.600;5.718;2023-04-06T13:01:31;10.60;;;6.40;;
68438;SDS011;55421;51.600;5.718;2023-04-06T13:03:58;11.10;;;7.00;;
68438;SDS011;55421;51.600;5.718;2023-04-06T13:06:25;6.60;;;4.40;;
68438;SDS011;55421;51.600;5.718;2023-04-06T13:08:55;9.50;;;6.00;;
68438;SDS011;55421;51.600;5.718;2023-04-06T13:11:22;9.90;;;6.60;;
68438;SDS011;55421;51.600;5.718;2023-04-06T13:13:50;13.60;;;6.90;;
68438;SDS011;55421;51.600;5.718;2023-04-06T13:16:16;10.00;;;6.30;;
68438;SDS011;55421;51.600;5.718;2023-04-06T13:18:43;8.40;;;5.60;;
68438;SDS011;55421;51.600;5.718;2023-04-06T13:21:13;12.00;;;6.00;;
68438;SDS011;55421;51.600;5.718;2023-04-06T13:23:42;10.40;;;6.80;;
68438;SDS011;55421;51.600;5.718;2023-04-06T13:26:09;10.40;;;6.80;;
68438;SDS011;55421;51.600;5.718;2023-04-06T13:28:36;8.70;;;5.90;;
68438;SDS011;55421;51.600;5.718;2023-04-06T13:31:05;10.60;;;6.90;;
68438;SDS011;55421;51.600;5.718;2023-04-06T13:33:32;9.20;;;6.30;;
68438;SDS011;55421;51.600;5.718;2023-04-06T13:35:59;10.20;;;6.40;;
68438;SDS011;55421;51.600;5.718;2023-04-06T13:38:26;12.50;;;7.20;;
68438;SDS011;55421;51.600;5.718;2023-04-06T13:40:52;11.10;;;7.10;;
68438;SDS011;55421;51.600;5.718;2023-04-06T13:43:19;9.50;;;6.50;;
68438;SDS011;55421;51.600;5.718;2023-04-06T13:45:50;10.10;;;6.60;;
68438;SDS011;55421;51.600;5.718;2023-04-06T13:48:18;10.00;;;6.40;;
68438;SDS011;55421;51.600;5.718;2023-04-06T13:50:45;9.70;;;6.90;;
68438;SDS011;55421;51.600;5.718;2023-04-06T13:53:12;12.50;;;7.70;;
68438;SDS011;55421;51.600;5.718;2023-04-06T13:55:39;9.90;;;6.70;;
68438;SDS011;55421;51.600;5.718;2023-04-06T13:58:06;10.60;;;6.40;;
68438;SDS011;55421;51.600;5.718;2023-04-06T14:00:34;10.40;;;6.40;;
68438;SDS011;55421;51.600;5.718;2023-04-06T14:03:01;9.40;;;6.20;;
68438;SDS011;55421;51.600;5.718;2023-04-06T14:05:32;9.30;;;6.10;;
68438;SDS011;55421;51.600;5.718;2023-04-06T14:07:59;11.40;;;5.90;;
68438;SDS011;55421;51.600;5.718;2023-04-06T14:10:26;9.10;;;5.50;;
68438;SDS011;55421;51.600;5.718;2023-04-06T14:12:54;10.10;;;6.50;;
68438;SDS011;55421;51.600;5.718;2023-04-06T14:15:21;10.40;;;7.00;;
68438;SDS011;55421;51.600;5.718;2023-04-06T14:17:48;10.40;;;6.60;;
68438;SDS011;55421;51.600;5.718;2023-04-06T14:20:15;10.80;;;7.00;;
68438;SDS011;55421;51.600;5.718;2023-04-06T14:22:42;11.10;;;6.70;;
68438;SDS011;55421;51.600;5.718;2023-04-06T14:25:09;10.90;;;6.80;;
68438;SDS011;55421;51.600;5.718;2023-04-06T14:27:37;10.80;;;7.10;;
68438;SDS011;55421;51.600;5.718;2023-04-06T14:30:03;12.00;;;6.30;;
68438;SDS011;55421;51.600;5.718;2023-04-06T14:32:30;9.80;;;6.70;;
68438;SDS011;55421;51.600;5.718;2023-04-06T14:34:57;10.90;;;6.40;;
68438;SDS011;55421;51.600;5.718;2023-04-06T14:37:23;10.90;;;6.80;;